createdAt,value
2023-01-27T00:00:50.976Z,3.70
2023-01-27T00:03:18.431Z,3.57
2023-01-27T00:05:46.884Z,3.55
2023-01-27T00:08:14.265Z,3.50
2023-01-27T00:10:41.137Z,3.52
2023-01-27T00:13:32.158Z,3.55
2023-01-27T00:15:59.259Z,3.60
2023-01-27T00:18:26.113Z,3.51
2023-01-27T00:21:11.631Z,3.56
2023-01-27T00:23:57.100Z,3.64
2023-01-27T00:26:24.072Z,3.64
2023-01-27T00:28:51.289Z,3.70
2023-01-27T00:31:37.426Z,3.71
2023-01-27T00:34:11.570Z,3.71
2023-01-27T00:36:41.009Z,3.71
2023-01-27T00:39:10.624Z,3.71
2023-01-27T00:41:37.855Z,3.73
2023-01-27T00:44:12.888Z,3.72
2023-01-27T00:46:40.556Z,3.66
2023-01-27T00:49:09.169Z,3.69
2023-01-27T00:51:37.023Z,3.66
2023-01-27T00:54:04.186Z,3.63
2023-01-27T00:56:31.034Z,3.62
2023-01-27T00:58:57.796Z,3.61
2023-01-27T01:01:24.720Z,3.60
2023-01-27T01:03:52.577Z,3.59
2023-01-27T01:06:20.777Z,3.52
2023-01-27T01:08:48.769Z,3.46
2023-01-27T01:11:17.365Z,3.46
2023-01-27T01:13:45.419Z,3.44
2023-01-27T01:16:19.004Z,3.47
2023-01-27T01:18:46.492Z,3.38
2023-01-27T01:21:14.076Z,3.37
2023-01-27T01:23:42.873Z,3.37
2023-01-27T01:26:11.511Z,3.42
2023-01-27T01:28:38.889Z,3.47
2023-01-27T01:31:16.784Z,3.45
2023-01-27T01:33:43.853Z,3.43
2023-01-27T01:36:12.951Z,3.46
2023-01-27T01:38:40.080Z,3.43
2023-01-27T01:41:08.255Z,3.45
2023-01-27T01:43:35.337Z,3.48
2023-01-27T01:46:03.186Z,3.49
2023-01-27T01:48:35.457Z,3.43
2023-01-27T01:51:23.520Z,3.44
2023-01-27T01:54:18.047Z,3.34
2023-01-27T01:56:50.040Z,3.42
2023-01-27T01:59:24.300Z,3.45
2023-01-27T02:01:56.792Z,3.51
2023-01-27T02:04:28.036Z,3.36
2023-01-27T02:07:27.508Z,3.22
2023-01-27T02:09:56.457Z,3.28
2023-01-27T02:12:23.232Z,3.30
2023-01-27T02:14:50.030Z,3.28
2023-01-27T02:17:34.775Z,3.25
2023-01-27T02:20:07.541Z,3.24
2023-01-27T02:22:47.162Z,3.25
2023-01-27T02:25:16.938Z,3.30
2023-01-27T02:27:43.730Z,3.28
2023-01-27T02:30:11.173Z,3.29
2023-01-27T02:32:40.138Z,3.33
2023-01-27T02:35:09.054Z,3.33
2023-01-27T02:37:37.416Z,3.27
2023-01-27T02:40:05.865Z,3.31
2023-01-27T02:42:32.716Z,3.34
2023-01-27T02:44:59.429Z,3.24
2023-01-27T02:47:26.232Z,3.25
2023-01-27T02:49:54.418Z,3.14
2023-01-27T02:52:23.494Z,2.98
2023-01-27T02:54:52.188Z,2.94
2023-01-27T02:57:19.326Z,2.98
2023-01-27T03:00:00.176Z,2.96
2023-01-27T03:02:30.481Z,2.89
2023-01-27T03:04:57.929Z,2.90
2023-01-27T03:07:25.321Z,2.85
2023-01-27T03:09:54.411Z,2.85
2023-01-27T03:12:22.539Z,2.91
2023-01-27T03:15:10.462Z,2.99
2023-01-27T03:17:57.139Z,2.97
2023-01-27T03:20:24.573Z,2.87
2023-01-27T03:22:51.451Z,2.92
2023-01-27T03:25:20.706Z,2.92
2023-01-27T03:27:47.889Z,2.92
2023-01-27T03:30:26.177Z,2.99
2023-01-27T03:33:03.482Z,3.04
2023-01-27T03:36:13.294Z,3.00
2023-01-27T03:39:05.345Z,2.89
2023-01-27T03:41:51.542Z,2.95
2023-01-27T03:44:36.908Z,3.01
2023-01-27T03:47:03.852Z,3.02
2023-01-27T03:49:30.658Z,3.12
2023-01-27T03:51:57.594Z,2.99
2023-01-27T03:54:24.407Z,2.98
2023-01-27T03:56:51.213Z,2.98
2023-01-27T03:59:18.584Z,3.02
2023-01-27T04:01:45.380Z,3.06
2023-01-27T04:04:31.154Z,3.10
2023-01-27T04:07:03.097Z,3.14
2023-01-27T04:09:35.790Z,3.14
2023-01-27T04:12:05.556Z,3.08
2023-01-27T04:14:39.235Z,3.10
2023-01-27T04:17:10.912Z,3.15
2023-01-27T04:19:37.597Z,3.18
2023-01-27T04:22:05.254Z,3.24
2023-01-27T04:24:32.399Z,3.24
2023-01-27T04:27:03.681Z,3.26
2023-01-27T04:29:32.441Z,3.28
2023-01-27T04:31:59.305Z,3.28
2023-01-27T04:34:27.574Z,3.28
2023-01-27T04:36:54.846Z,3.30
2023-01-27T04:39:21.637Z,3.35
2023-01-27T04:41:51.804Z,3.39
2023-01-27T04:44:21.609Z,3.37
2023-01-27T04:46:50.517Z,3.37
2023-01-27T04:49:17.443Z,3.38
2023-01-27T04:51:46.168Z,3.39
2023-01-27T04:54:13.165Z,3.37
2023-01-27T04:56:44.399Z,3.34
2023-01-27T04:59:17.577Z,3.14
2023-01-27T05:01:44.342Z,3.14
2023-01-27T05:04:11.098Z,3.15
2023-01-27T05:06:38.032Z,3.18
2023-01-27T05:09:04.765Z,3.22
2023-01-27T05:11:31.540Z,3.25
2023-01-27T05:13:58.247Z,3.19
2023-01-27T05:16:27.580Z,3.13
2023-01-27T05:18:54.587Z,3.13
2023-01-27T05:21:24.376Z,3.08
2023-01-27T05:23:51.623Z,3.04
2023-01-27T05:26:24.474Z,3.01
2023-01-27T05:28:52.484Z,2.95
2023-01-27T05:31:23.255Z,2.92
2023-01-27T05:33:52.034Z,2.81
2023-01-27T05:36:20.993Z,2.85
2023-01-27T05:38:48.246Z,2.74
2023-01-27T05:41:16.991Z,2.60
2023-01-27T05:43:45.873Z,2.57
2023-01-27T05:46:21.347Z,2.54
2023-01-27T05:48:50.258Z,2.39
2023-01-27T05:51:19.493Z,2.40
2023-01-27T05:53:46.501Z,2.37
2023-01-27T05:56:15.126Z,2.39
2023-01-27T05:58:42.005Z,2.40
2023-01-27T06:01:17.861Z,2.33
2023-01-27T06:03:46.111Z,2.36
2023-01-27T06:06:14.399Z,2.36
2023-01-27T06:08:41.827Z,2.44
2023-01-27T06:11:09.423Z,2.50
2023-01-27T06:13:38.809Z,2.41
2023-01-27T06:16:11.218Z,2.25
2023-01-27T06:18:39.324Z,2.17
2023-01-27T06:21:08.383Z,2.14
2023-01-27T06:23:38.863Z,2.10
2023-01-27T06:26:12.501Z,1.93
2023-01-27T06:28:40.740Z,1.93
2023-01-27T06:31:11.969Z,2.07
2023-01-27T06:33:41.812Z,2.14
2023-01-27T06:36:11.331Z,2.26
2023-01-27T06:38:38.180Z,2.28
2023-01-27T06:41:05.463Z,2.27
2023-01-27T06:43:32.408Z,2.31
2023-01-27T06:46:00.155Z,2.42
2023-01-27T06:48:28.766Z,2.35
2023-01-27T06:50:56.554Z,2.44
2023-01-27T06:53:24.319Z,2.56
2023-01-27T06:56:01.951Z,2.59
2023-01-27T06:58:29.522Z,2.73
2023-01-27T07:00:57.034Z,2.77
2023-01-27T07:03:24.777Z,2.85
2023-01-27T07:05:52.440Z,2.87
2023-01-27T07:08:19.309Z,2.91
2023-01-27T07:10:46.212Z,2.89
2023-01-27T07:13:14.766Z,2.94
2023-01-27T07:15:42.283Z,3.01
2023-01-27T07:18:11.756Z,3.02
2023-01-27T07:20:38.629Z,3.06
2023-01-27T07:23:06.116Z,3.11
2023-01-27T07:25:35.052Z,3.13
2023-01-27T07:28:03.056Z,3.09
2023-01-27T07:30:30.272Z,3.12
2023-01-27T07:33:02.961Z,3.17
2023-01-27T07:35:29.791Z,3.17
2023-01-27T07:37:58.239Z,3.10
2023-01-27T07:40:25.306Z,3.13
2023-01-27T07:42:52.059Z,3.15
2023-01-27T07:45:19.620Z,3.12
2023-01-27T07:47:46.422Z,3.11
2023-01-27T07:50:13.507Z,3.08
2023-01-27T07:52:40.759Z,3.09
2023-01-27T07:55:08.361Z,3.15
2023-01-27T07:57:35.427Z,3.19
2023-01-27T08:00:02.385Z,3.18
2023-01-27T08:02:39.180Z,3.12
2023-01-27T08:05:06.346Z,3.14
2023-01-27T08:07:33.196Z,3.03
2023-01-27T08:10:00.140Z,3.04
2023-01-27T08:12:28.095Z,3.05
2023-01-27T08:14:54.951Z,3.03
2023-01-27T08:17:21.758Z,3.11
2023-01-27T08:19:50.640Z,2.87
2023-01-27T08:22:21.064Z,2.61
2023-01-27T08:24:48.397Z,2.60
2023-01-27T08:27:16.031Z,2.75
2023-01-27T08:29:42.854Z,2.67
2023-01-27T08:32:10.816Z,2.75
2023-01-27T08:34:38.907Z,2.80
2023-01-27T08:37:09.099Z,2.82
2023-01-27T08:39:36.396Z,2.78
2023-01-27T08:42:03.351Z,2.77
2023-01-27T08:44:30.139Z,2.92
2023-01-27T08:46:56.873Z,3.03
2023-01-27T08:49:24.079Z,3.11
2023-01-27T08:51:50.863Z,3.19
2023-01-27T08:54:17.638Z,3.30
2023-01-27T08:56:44.408Z,3.21
2023-01-27T08:59:11.197Z,3.24
2023-01-27T09:01:38.189Z,3.32
2023-01-27T09:04:04.998Z,3.39
2023-01-27T09:06:31.845Z,3.50
2023-01-27T09:09:12.126Z,3.61
2023-01-27T09:11:42.501Z,3.65
2023-01-27T09:14:09.681Z,3.75
2023-01-27T09:16:36.757Z,3.82
2023-01-27T09:19:04.523Z,3.88
2023-01-27T09:21:32.034Z,3.86
2023-01-27T09:23:58.817Z,3.72
2023-01-27T09:26:25.586Z,3.72
2023-01-27T09:28:52.456Z,3.82
2023-01-27T09:31:19.636Z,3.95
2023-01-27T09:33:46.572Z,4.08
2023-01-27T09:36:18.108Z,4.22
2023-01-27T09:39:05.879Z,4.28
2023-01-27T09:42:09.901Z,4.33
2023-01-27T09:45:04.794Z,4.27
2023-01-27T09:47:49.592Z,4.46
2023-01-27T09:50:46.690Z,4.53
2023-01-27T09:53:22.182Z,4.56
2023-01-27T09:56:00.639Z,4.56
2023-01-27T09:59:06.620Z,4.34
2023-01-27T10:01:55.992Z,4.43
2023-01-27T10:04:30.938Z,4.56
2023-01-27T10:06:58.176Z,4.71
2023-01-27T10:09:54.297Z,4.72
2023-01-27T10:12:44.058Z,4.54
2023-01-27T10:15:41.160Z,4.40
2023-01-27T10:18:19.982Z,4.04
2023-01-27T10:21:28.853Z,3.97
2023-01-27T10:24:39.189Z,3.85
2023-01-27T10:27:22.364Z,3.87
2023-01-27T10:30:16.062Z,3.56
2023-01-27T10:32:47.184Z,3.52
2023-01-27T10:35:29.298Z,3.49
2023-01-27T10:38:18.899Z,3.71
2023-01-27T10:41:04.189Z,3.69
2023-01-27T10:43:54.594Z,3.34
2023-01-27T10:46:41.409Z,3.54
2023-01-27T10:49:29.669Z,3.67
2023-01-27T10:52:13.450Z,3.58
2023-01-27T10:54:53.889Z,3.72
2023-01-27T10:57:38.687Z,3.93
2023-01-27T11:03:23.431Z,3.64
2023-01-27T11:05:57.351Z,3.40
2023-01-27T11:08:32.745Z,3.43
2023-01-27T11:11:22.338Z,3.57
2023-01-27T11:13:51.161Z,3.70
2023-01-27T11:16:20.098Z,3.69
2023-01-27T11:18:55.693Z,3.86
2023-01-27T11:21:28.216Z,3.71
2023-01-27T11:23:57.191Z,3.56
2023-01-27T11:26:38.316Z,3.47
2023-01-27T11:29:39.176Z,3.80
2023-01-27T11:32:41.920Z,3.82
2023-01-27T11:35:08.623Z,3.85
2023-01-27T11:37:41.171Z,4.09
2023-01-27T11:40:28.523Z,4.23
2023-01-27T11:42:58.431Z,4.07
2023-01-27T11:45:25.609Z,4.18
2023-01-27T11:47:57.231Z,4.32
2023-01-27T11:50:25.895Z,4.52
2023-01-27T11:53:14.677Z,4.57
2023-01-27T11:55:47.094Z,4.38
2023-01-27T11:58:19.583Z,4.44
2023-01-27T12:00:57.346Z,4.47
2023-01-27T12:03:44.575Z,4.29
2023-01-27T12:06:21.577Z,4.29
2023-01-27T12:08:49.747Z,4.33
2023-01-27T12:11:21.642Z,4.09
2023-01-27T12:14:05.434Z,4.45
2023-01-27T12:16:46.131Z,4.27
2023-01-27T12:19:32.094Z,4.11
2023-01-27T12:22:13.508Z,4.23
2023-01-27T12:24:47.715Z,4.00
2023-01-27T12:27:27.613Z,4.22
2023-01-27T12:30:01.090Z,4.22
2023-01-27T12:32:48.666Z,4.30
2023-01-27T12:35:23.551Z,4.48
2023-01-27T12:37:56.009Z,4.55
2023-01-27T12:40:25.494Z,4.51
2023-01-27T12:43:22.779Z,4.30
2023-01-27T12:46:12.005Z,3.86
2023-01-27T12:48:50.425Z,3.57
2023-01-27T12:51:22.813Z,3.57
2023-01-27T12:53:51.315Z,3.48
2023-01-27T12:56:21.552Z,3.24
2023-01-27T12:59:00.504Z,3.36
2023-01-27T13:01:41.387Z,3.31
2023-01-27T13:04:17.171Z,3.15
2023-01-27T13:06:50.318Z,3.21
2023-01-27T13:09:31.113Z,3.31
2023-01-27T13:12:02.243Z,3.41
2023-01-27T13:14:32.174Z,3.22
2023-01-27T13:16:59.253Z,3.22
2023-01-27T13:19:47.024Z,3.23
2023-01-27T13:22:20.101Z,3.17
2023-01-27T13:24:51.547Z,3.24
2023-01-27T13:27:23.431Z,3.36
2023-01-27T13:30:01.154Z,3.50
2023-01-27T13:32:41.495Z,3.35
2023-01-27T13:35:34.820Z,3.52
2023-01-27T13:38:22.451Z,3.39
2023-01-27T13:40:49.799Z,3.61
2023-01-27T13:43:37.698Z,3.88
2023-01-27T13:46:21.847Z,3.69
2023-01-27T13:48:55.480Z,3.60
2023-01-27T13:51:25.358Z,3.60
2023-01-27T13:54:01.113Z,3.58
2023-01-27T13:56:57.049Z,3.47
2023-01-27T14:00:23.164Z,3.42
2023-01-27T14:03:10.569Z,3.58
2023-01-27T14:05:50.116Z,3.77
2023-01-27T14:08:41.129Z,3.93
2023-01-27T14:11:28.567Z,3.96
2023-01-27T14:14:17.432Z,3.86
2023-01-27T14:17:14.826Z,3.81
2023-01-27T14:23:30.001Z,3.34
2023-01-27T14:26:26.042Z,3.38
2023-01-27T14:29:43.988Z,3.24
2023-01-27T14:32:35.972Z,3.06
2023-01-27T14:35:44.776Z,2.97
2023-01-27T14:39:02.192Z,2.99
2023-01-27T14:41:45.132Z,3.09
2023-01-27T14:44:55.837Z,3.15
2023-01-27T14:47:29.945Z,3.12
2023-01-27T14:50:21.691Z,2.99
2023-01-27T14:53:13.407Z,2.78
2023-01-27T14:56:07.808Z,2.73
2023-01-27T14:59:08.496Z,2.57
2023-01-27T15:01:53.425Z,2.69
2023-01-27T15:04:34.482Z,2.66
2023-01-27T15:07:11.572Z,2.41
2023-01-27T15:10:17.367Z,2.41
2023-01-27T15:13:17.845Z,2.31
2023-01-27T15:16:10.040Z,2.35
2023-01-27T15:19:03.976Z,2.38
2023-01-27T15:22:13.962Z,2.21
2023-01-27T15:24:43.666Z,2.32
2023-01-27T15:27:11.229Z,2.26
2023-01-27T15:29:38.503Z,2.16
2023-01-27T15:32:17.300Z,1.98
2023-01-27T15:34:46.287Z,2.01
2023-01-27T15:37:28.466Z,1.96
2023-01-27T15:40:15.653Z,1.84
2023-01-27T15:43:00.603Z,1.74
2023-01-27T15:45:33.465Z,1.72
2023-01-27T15:48:11.090Z,1.82
2023-01-27T15:50:45.359Z,1.86
2023-01-27T15:53:15.961Z,1.83
2023-01-27T15:55:55.533Z,1.96
2023-01-27T15:58:42.392Z,1.87
2023-01-27T16:01:11.639Z,2.00
2023-01-27T16:03:45.030Z,2.12
2023-01-27T16:06:16.618Z,1.93
2023-01-27T16:08:52.472Z,2.13
2023-01-27T16:11:31.050Z,1.86
2023-01-27T16:14:12.973Z,1.87
2023-01-27T16:16:41.045Z,1.77
2023-01-27T16:19:21.675Z,1.65
2023-01-27T16:21:57.741Z,1.80
2023-01-27T16:24:39.942Z,1.62
2023-01-27T16:27:41.832Z,1.72
2023-01-27T16:30:11.787Z,1.65
2023-01-27T16:32:42.422Z,1.61
2023-01-27T16:35:18.957Z,1.60
2023-01-27T16:38:02.973Z,1.58
2023-01-27T16:40:31.007Z,1.82
2023-01-27T16:43:20.578Z,1.77
2023-01-27T16:45:55.822Z,1.75
2023-01-27T16:48:43.951Z,1.71
2023-01-27T16:51:29.639Z,1.81
2023-01-27T16:53:59.538Z,1.76
2023-01-27T16:56:26.295Z,1.64
2023-01-27T16:58:59.217Z,1.63
2023-01-27T17:01:48.046Z,1.42
2023-01-27T17:04:21.222Z,1.53
2023-01-27T17:06:49.360Z,1.61
2023-01-27T17:09:28.609Z,1.61
2023-01-27T17:11:55.786Z,1.58
2023-01-27T17:14:33.856Z,1.52
2023-01-27T17:17:04.157Z,1.43
2023-01-27T17:19:36.286Z,1.44
2023-01-27T17:22:04.792Z,1.31
2023-01-27T17:24:34.864Z,1.32
2023-01-27T17:27:22.473Z,1.28
2023-01-27T17:29:52.564Z,1.30
2023-01-27T17:32:23.047Z,1.33
2023-01-27T17:34:53.561Z,1.52
2023-01-27T17:37:22.590Z,1.46
2023-01-27T17:39:57.891Z,1.60
2023-01-27T17:42:31.690Z,1.71
2023-01-27T17:45:21.658Z,1.65
2023-01-27T17:47:49.812Z,1.73
2023-01-27T17:50:23.178Z,1.78
2023-01-27T17:52:52.677Z,1.64
2023-01-27T17:55:22.827Z,1.92
2023-01-27T17:57:54.350Z,1.95
2023-01-27T18:00:38.330Z,1.76
2023-01-27T18:03:22.879Z,1.69
2023-01-27T18:05:53.764Z,1.68
2023-01-27T18:08:22.491Z,1.86
2023-01-27T18:10:49.659Z,1.80
2023-01-27T18:13:19.356Z,1.77
2023-01-27T18:16:06.991Z,1.63
2023-01-27T18:18:35.728Z,1.69
2023-01-27T18:21:14.117Z,1.75
2023-01-27T18:23:55.776Z,1.74
2023-01-27T18:26:42.398Z,1.84
2023-01-27T18:29:25.713Z,1.98
2023-01-27T18:32:10.281Z,1.99
2023-01-27T18:34:47.813Z,2.08
2023-01-27T18:37:35.923Z,2.11
2023-01-27T18:40:22.170Z,2.08
2023-01-27T18:42:53.564Z,2.02
2023-01-27T18:45:20.590Z,2.01
2023-01-27T18:47:47.514Z,2.00
2023-01-27T18:50:18.225Z,1.89
2023-01-27T18:52:45.556Z,1.92
2023-01-27T18:55:27.093Z,1.91
2023-01-27T18:57:57.464Z,1.98
2023-01-27T19:00:37.761Z,2.04
2023-01-27T19:03:07.637Z,1.99
2023-01-27T19:05:35.643Z,1.92
2023-01-27T19:08:03.335Z,1.96
2023-01-27T19:10:33.597Z,2.06
2023-01-27T19:13:03.624Z,1.95
2023-01-27T19:15:48.539Z,1.86
2023-01-27T19:18:20.698Z,1.96
2023-01-27T19:20:47.614Z,2.03
2023-01-27T19:23:16.228Z,1.95
2023-01-27T19:25:43.889Z,1.97
2023-01-27T19:28:26.792Z,2.02
2023-01-27T19:30:53.642Z,2.03
2023-01-27T19:33:23.098Z,2.01
2023-01-27T19:35:53.791Z,2.03
2023-01-27T19:38:21.580Z,2.03
2023-01-27T19:40:48.414Z,2.14
2023-01-27T19:43:16.038Z,2.09
2023-01-27T19:45:45.711Z,2.09
2023-01-27T19:48:18.828Z,1.86
2023-01-27T19:50:46.073Z,1.90
2023-01-27T19:53:14.886Z,1.92
2023-01-27T19:55:42.267Z,1.81
2023-01-27T19:58:22.404Z,1.79
2023-01-27T20:00:49.430Z,1.97
2023-01-27T20:03:16.557Z,2.04
2023-01-27T20:05:43.348Z,2.04
2023-01-27T20:08:15.767Z,2.00
2023-01-27T20:10:43.236Z,2.05
2023-01-27T20:13:20.951Z,1.91
2023-01-27T20:15:48.463Z,2.04
2023-01-27T20:18:17.241Z,2.15
2023-01-27T20:20:44.753Z,2.18
2023-01-27T20:23:15.840Z,2.03
2023-01-27T20:25:43.117Z,1.97
2023-01-27T20:28:12.167Z,1.97
2023-01-27T20:30:39.327Z,2.05
2023-01-27T20:33:06.793Z,2.11
2023-01-27T20:35:33.808Z,2.04
2023-01-27T20:38:02.121Z,1.91
2023-01-27T20:40:30.291Z,1.87
2023-01-27T20:42:57.056Z,1.89
2023-01-27T20:45:23.894Z,1.87
2023-01-27T20:47:53.033Z,1.89
2023-01-27T20:50:21.677Z,1.99
2023-01-27T20:52:48.823Z,1.95
2023-01-27T20:55:17.317Z,1.87
2023-01-27T20:57:44.366Z,1.84
2023-01-27T21:00:20.524Z,1.80
2023-01-27T21:02:48.287Z,1.80
2023-01-27T21:05:18.158Z,1.86
2023-01-27T21:07:45.049Z,1.91
2023-01-27T21:10:12.305Z,2.02
2023-01-27T21:12:39.547Z,2.04
2023-01-27T21:15:09.862Z,2.05
2023-01-27T21:17:37.429Z,2.12
2023-01-27T21:20:04.986Z,1.91
2023-01-27T21:22:32.363Z,1.93
2023-01-27T21:24:59.133Z,2.03
2023-01-27T21:27:25.916Z,2.13
2023-01-27T21:29:52.985Z,2.19
2023-01-27T21:32:19.746Z,2.16
2023-01-27T21:34:46.523Z,2.09
2023-01-27T21:37:13.321Z,1.95
2023-01-27T21:39:40.081Z,1.86
2023-01-27T21:42:06.883Z,1.95
2023-01-27T21:44:52.023Z,2.03
2023-01-27T21:47:19.911Z,1.99
2023-01-27T21:50:03.953Z,1.92
2023-01-27T21:52:35.008Z,1.77
2023-01-27T21:55:07.083Z,1.67
2023-01-27T21:57:34.777Z,1.70
2023-01-27T22:00:01.646Z,1.65
2023-01-27T22:02:39.258Z,1.65
2023-01-27T22:05:06.830Z,1.78
2023-01-27T22:07:40.554Z,1.91
2023-01-27T22:10:10.765Z,1.84
2023-01-27T22:12:37.535Z,1.90
2023-01-27T22:15:06.534Z,1.87
2023-01-27T22:17:34.992Z,1.82
2023-01-27T22:20:02.692Z,1.82
2023-01-27T22:22:30.063Z,1.92
2023-01-27T22:24:56.836Z,1.83
2023-01-27T22:27:24.071Z,1.84
2023-01-27T22:29:53.564Z,1.88
2023-01-27T22:32:20.430Z,1.88
2023-01-27T22:34:47.922Z,1.94
2023-01-27T22:37:15.043Z,1.85
2023-01-27T22:39:44.707Z,1.86
2023-01-27T22:42:14.271Z,1.86
2023-01-27T22:44:42.599Z,2.00
2023-01-27T22:47:12.474Z,1.88
2023-01-27T22:49:39.203Z,1.78
2023-01-27T22:52:06.354Z,1.72
2023-01-27T22:54:33.203Z,1.63
2023-01-27T22:57:01.123Z,1.64
2023-01-27T22:59:28.103Z,1.66
2023-01-27T23:01:55.192Z,1.65
2023-01-27T23:04:22.606Z,1.70
2023-01-27T23:06:49.376Z,1.82
2023-01-27T23:09:16.192Z,1.73
2023-01-27T23:11:43.045Z,1.77
2023-01-27T23:14:13.292Z,1.82
2023-01-27T23:16:43.639Z,1.86
2023-01-27T23:19:10.950Z,1.89
2023-01-27T23:21:37.910Z,1.75
2023-01-27T23:24:07.459Z,1.74
2023-01-27T23:26:34.413Z,1.79
2023-01-27T23:29:03.192Z,1.87
2023-01-27T23:31:30.042Z,1.86
2023-01-27T23:33:56.928Z,1.87
2023-01-27T23:36:26.219Z,1.79
2023-01-27T23:38:53.239Z,1.84
2023-01-27T23:41:20.474Z,1.91
2023-01-27T23:43:52.461Z,1.85
2023-01-27T23:46:20.060Z,1.87
2023-01-27T23:48:56.293Z,1.88
2023-01-27T23:51:23.519Z,2.01
2023-01-27T23:53:51.300Z,1.95
2023-01-27T23:56:21.507Z,1.83
2023-01-27T23:58:48.537Z,1.82
